Time;durP1;ratioP1;P1;durP2;ratioP2;P2;SDS_P1;SDS_P2;PMS_P1;PMS_P2;Temp;Humidity;BMP_temperature;BMP_pressure;BME280_temperature;BME280_humidity;BME280_pressure;Samples;Min_cycle;Max_cycle;Signal;HPM_P1;HPM_P2
2021/07/02 00:00:01;;;;;;;;;;;15.30;99.90;;;;;;5094921;28;20032;-71
2021/07/02 00:02:28;;;;;;;;;;;15.30;99.90;;;;;;5094933;28;19930;-70
2021/07/02 00:04:55;;;;;;;;;;;15.40;99.90;;;;;;5094713;28;20336;-71
2021/07/02 00:07:22;;;;;;;;;;;15.40;99.90;;;;;;5097258;28;19934;-71
2021/07/02 00:09:48;;;;;;;;;;;15.40;99.90;;;;;;5098732;28;19924;-71
2021/07/02 00:12:15;;;;;;;;;;;15.40;99.90;;;;;;5098703;28;19924;-71
2021/07/02 00:14:43;;;;;;;;;;;15.40;99.90;;;;;;5098846;28;20268;-71
2021/07/02 00:17:10;;;;;;;;;;;15.50;99.90;;;;;;5098639;28;19928;-71
2021/07/02 00:19:37;;;;;;;;;;;15.50;99.90;;;;;;5098473;28;19934;-71
2021/07/02 00:22:04;;;;;;;;;;;15.50;99.90;;;;;;5098538;28;19928;-71
2021/07/02 00:24:31;;;;;;;;;;;15.50;99.90;;;;;;5098219;28;20415;-71
2021/07/02 00:26:58;;;;;;;;;;;15.50;99.90;;;;;;5098392;28;19930;-71
2021/07/02 00:29:25;;;;;;;;;;;15.40;99.90;;;;;;5098190;28;19924;-71
2021/07/02 00:31:53;;;;;;;;;;;15.40;99.90;;;;;;5098138;28;19924;-71
2021/07/02 00:34:20;;;;;;;;;;;15.30;99.90;;;;;;5098171;28;19924;-71
2021/07/02 00:36:47;;;;;;;;;;;15.40;99.90;;;;;;5098111;28;19924;-71
2021/07/02 00:39:14;;;;;;;;;;;15.30;99.90;;;;;;5097942;28;19934;-71
2021/07/02 00:41:41;;;;;;;;;;;15.40;99.90;;;;;;5098067;28;19938;-71
2021/07/02 00:44:07;;;;;;;;;;;15.30;99.90;;;;;;5097897;28;20263;-71
2021/07/02 00:46:34;;;;;;;;;;;15.40;99.90;;;;;;5097861;28;20356;-71
2021/07/02 00:49:02;;;;;;;;;;;15.40;99.90;;;;;;5097806;28;19935;-71
2021/07/02 00:51:30;;;;;;;;;;;15.30;99.90;;;;;;5097985;28;19934;-71
2021/07/02 00:53:58;;;;;;;;;;;15.30;99.90;;;;;;5097690;28;19973;-71
2021/07/02 00:56:25;;;;;;;;;;;15.20;99.90;;;;;;5097661;28;19973;-71
2021/07/02 00:58:52;;;;;;;;;;;15.20;99.90;;;;;;5097467;28;19924;-71
2021/07/02 01:01:19;;;;;;;;;;;15.20;99.90;;;;;;5097896;28;19935;-71
2021/07/02 01:03:46;;;;;;;;;;;15.10;99.90;;;;;;5097881;28;19934;-71
2021/07/02 01:06:14;;;;;;;;;;;15.10;99.90;;;;;;5097365;28;20260;-71
2021/07/02 01:08:41;;;;;;;;;;;15.10;99.90;;;;;;5097467;28;19934;-71
2021/07/02 01:11:08;;;;;;;;;;;15.10;99.90;;;;;;5097400;28;20251;-71
2021/07/02 01:13:35;;;;;;;;;;;15.10;99.90;;;;;;5097298;28;19938;-71
2021/07/02 01:16:01;;;;;;;;;;;15.00;99.90;;;;;;5097288;28;19934;-71
2021/07/02 01:18:28;;;;;;;;;;;15.00;99.90;;;;;;5096735;28;19924;-71
2021/07/02 01:20:56;;;;;;;;;;;14.90;99.90;;;;;;5097405;28;19924;-71
2021/07/02 01:23:25;;;;;;;;;;;14.90;99.90;;;;;;5097253;28;19924;-71
2021/07/02 01:25:51;;;;;;;;;;;14.90;99.90;;;;;;5097114;28;19924;-71
2021/07/02 01:28:19;;;;;;;;;;;14.90;99.90;;;;;;5097319;28;19924;-71
2021/07/02 01:30:45;;;;;;;;;;;14.90;99.90;;;;;;5096959;28;19935;-71
2021/07/02 01:33:12;;;;;;;;;;;14.90;99.90;;;;;;5097171;28;19924;-71
2021/07/02 01:35:39;;;;;;;;;;;14.90;99.90;;;;;;5096935;28;19925;-71
2021/07/02 01:38:08;;;;;;;;;;;14.90;99.90;;;;;;5096953;28;19935;-71
2021/07/02 01:40:35;;;;;;;;;;;14.90;99.90;;;;;;5096769;28;19950;-71
2021/07/02 01:43:01;;;;;;;;;;;14.90;99.90;;;;;;5097023;28;19932;-71
2021/07/02 01:45:28;;;;;;;;;;;14.90;99.90;;;;;;5096943;28;19950;-71
2021/07/02 01:47:55;;;;;;;;;;;15.00;99.90;;;;;;5096825;28;19924;-71
2021/07/02 01:50:25;;;;;;;;;;;15.00;99.90;;;;;;5096730;28;19930;-71
2021/07/02 01:52:52;;;;;;;;;;;15.10;99.90;;;;;;5096569;28;19924;-71
2021/07/02 01:55:20;;;;;;;;;;;15.10;99.90;;;;;;5096455;28;20011;-71
2021/07/02 01:57:47;;;;;;;;;;;15.10;99.90;;;;;;5096675;28;19924;-71
2021/07/02 02:00:15;;;;;;;;;;;15.00;99.90;;;;;;5096390;28;20344;-71
2021/07/02 02:02:41;;;;;;;;;;;15.00;99.90;;;;;;5096412;28;19928;-71
2021/07/02 02:05:09;;;;;;;;;;;15.00;99.90;;;;;;5096465;28;19924;-71
2021/07/02 02:07:36;;;;;;;;;;;15.00;99.90;;;;;;5096069;28;19924;-71
2021/07/02 02:10:02;;;;;;;;;;;15.00;99.90;;;;;;5096199;28;19924;-71
2021/07/02 02:12:31;;;;;;;;;;;15.00;99.90;;;;;;5096402;28;19924;-71
2021/07/02 02:14:58;;;;;;;;;;;15.00;99.90;;;;;;5096137;28;19934;-71
2021/07/02 02:17:24;;;;;;;;;;;15.00;99.90;;;;;;5096227;28;19924;-71
2021/07/02 02:19:51;;;;;;;;;;;15.00;99.90;;;;;;5095954;28;20291;-71
2021/07/02 02:22:18;;;;;;;;;;;15.00;99.90;;;;;;5095980;28;19924;-71
2021/07/02 02:24:45;;;;;;;;;;;14.90;99.90;;;;;;5096518;28;19924;-71
2021/07/02 02:27:12;;;;;;;;;;;15.00;99.90;;;;;;5096171;28;19938;-71
2021/07/02 02:29:40;;;;;;;;;;;14.90;99.90;;;;;;5095272;28;20298;-71
2021/07/02 02:32:07;;;;;;;;;;;15.00;99.90;;;;;;5095773;28;19935;-71
2021/07/02 02:34:34;;;;;;;;;;;14.90;99.90;;;;;;5096289;28;19928;-71
2021/07/02 02:37:01;;;;;;;;;;;15.00;99.90;;;;;;5096013;28;19965;-71
2021/07/02 02:39:28;;;;;;;;;;;15.00;99.90;;;;;;5095898;28;19946;-71
2021/07/02 02:41:55;;;;;;;;;;;15.00;99.90;;;;;;5095661;28;20358;-71
2021/07/02 02:44:21;;;;;;;;;;;15.00;99.90;;;;;;5095617;28;19928;-71
2021/07/02 02:46:50;;;;;;;;;;;15.00;99.90;;;;;;5095856;28;19934;-71
2021/07/02 02:49:16;;;;;;;;;;;15.00;99.90;;;;;;5095585;28;19934;-71
2021/07/02 02:51:43;;;;;;;;;;;15.00;99.90;;;;;;5095525;28;19924;-71
2021/07/02 02:54:10;;;;;;;;;;;15.00;99.90;;;;;;5095763;28;19924;-71
2021/07/02 02:56:37;;;;;;;;;;;15.10;99.90;;;;;;5095683;28;20267;-71
2021/07/02 02:59:04;;;;;;;;;;;15.10;99.90;;;;;;5095380;28;19924;-71
2021/07/02 03:01:31;;;;;;;;;;;15.10;99.90;;;;;;5095362;28;19924;-71
2021/07/02 03:03:59;;;;;;;;;;;15.10;99.90;;;;;;5095439;28;19924;-71
2021/07/02 03:06:26;;;;;;;;;;;15.10;99.90;;;;;;5095057;28;19934;-71
2021/07/02 03:08:52;;;;;;;;;;;15.10;99.90;;;;;;5095627;28;19938;-71
2021/07/02 03:11:21;;;;;;;;;;;15.10;99.90;;;;;;5095444;28;19934;-71
2021/07/02 03:13:48;;;;;;;;;;;15.10;99.90;;;;;;5095202;28;20283;-71
2021/07/02 03:16:15;;;;;;;;;;;15.10;99.90;;;;;;5095174;28;19924;-71
2021/07/02 03:18:42;;;;;;;;;;;15.10;99.90;;;;;;5095161;28;20168;-71
2021/07/02 03:21:10;;;;;;;;;;;15.10;99.90;;;;;;5095197;28;19924;-71
2021/07/02 03:23:37;;;;;;;;;;;15.10;99.90;;;;;;5095109;28;19934;-71
2021/07/02 03:26:04;;;;;;;;;;;15.10;99.90;;;;;;5095073;28;19928;-71
2021/07/02 03:28:34;;;;;;;;;;;15.10;99.90;;;;;;5095127;28;19924;-71
2021/07/02 03:31:01;;;;;;;;;;;15.10;99.90;;;;;;5095009;28;19924;-71
2021/07/02 03:33:28;;;;;;;;;;;15.10;99.90;;;;;;5094984;28;19931;-71
2021/07/02 03:35:55;;;;;;;;;;;15.10;99.90;;;;;;5095160;28;19934;-71
2021/07/02 03:38:23;;;;;;;;;;;15.10;99.90;;;;;;5095182;28;19924;-71
2021/07/02 03:40:50;;;;;;;;;;;15.10;99.90;;;;;;5096958;28;19935;-71
2021/07/02 03:43:17;;;;;;;;;;;15.00;99.90;;;;;;5099232;28;19934;-71
2021/07/02 03:45:44;;;;;;;;;;;15.00;99.90;;;;;;5099113;28;19976;-71
2021/07/02 03:48:11;;;;;;;;;;;15.10;99.90;;;;;;5099027;28;19924;-71
2021/07/02 03:50:38;;;;;;;;;;;15.10;99.90;;;;;;5099006;28;20226;-71
2021/07/02 03:53:05;;;;;;;;;;;15.00;99.90;;;;;;5098935;28;19938;-71
2021/07/02 03:55:33;;;;;;;;;;;15.00;99.90;;;;;;5099032;28;19924;-71
2021/07/02 03:58:00;;;;;;;;;;;14.90;99.90;;;;;;5098818;28;19924;-71
2021/07/02 04:00:26;;;;;;;;;;;14.90;99.90;;;;;;5098687;28;19924;-71
2021/07/02 04:02:53;;;;;;;;;;;14.90;99.90;;;;;;5098624;28;19928;-71
2021/07/02 04:05:20;;;;;;;;;;;14.90;99.90;;;;;;5098670;28;20344;-71
2021/07/02 04:07:47;;;;;;;;;;;14.90;99.90;;;;;;5098566;28;19924;-71
2021/07/02 04:10:14;;;;;;;;;;;14.90;99.90;;;;;;5098630;28;20350;-71
2021/07/02 04:12:42;;;;;;;;;;;14.90;99.90;;;;;;5098566;28;19934;-71
2021/07/02 04:15:09;;;;;;;;;;;14.90;99.90;;;;;;5098492;28;19924;-71
2021/07/02 04:17:37;;;;;;;;;;;14.90;99.90;;;;;;5098467;28;19947;-71
2021/07/02 04:20:05;;;;;;;;;;;15.00;99.90;;;;;;5098369;28;19931;-71
2021/07/02 04:22:32;;;;;;;;;;;15.00;99.90;;;;;;5098538;28;19943;-71
2021/07/02 04:24:58;;;;;;;;;;;15.00;99.90;;;;;;5098254;28;20349;-71
2021/07/02 04:27:25;;;;;;;;;;;15.00;99.90;;;;;;5098204;28;19931;-71
2021/07/02 04:29:53;;;;;;;;;;;15.00;99.90;;;;;;5098185;28;19924;-71
2021/07/02 04:32:20;;;;;;;;;;;15.00;99.90;;;;;;5098463;28;19924;-71
2021/07/02 04:34:47;;;;;;;;;;;15.00;99.90;;;;;;5098105;28;20351;-71
2021/07/02 04:37:14;;;;;;;;;;;15.00;99.90;;;;;;5098186;28;19928;-71
2021/07/02 04:39:41;;;;;;;;;;;15.10;99.90;;;;;;5098309;28;19924;-71
2021/07/02 04:42:08;;;;;;;;;;;15.10;99.90;;;;;;5098187;28;19932;-71
2021/07/02 04:44:36;;;;;;;;;;;15.10;99.90;;;;;;5098132;28;19942;-71
2021/07/02 04:47:04;;;;;;;;;;;15.10;99.90;;;;;;5098148;28;19935;-71
2021/07/02 04:49:31;;;;;;;;;;;15.10;99.90;;;;;;5097917;28;19924;-71
2021/07/02 04:51:58;;;;;;;;;;;15.10;99.90;;;;;;5097131;28;19924;-71
2021/07/02 04:54:25;;;;;;;;;;;15.20;99.90;;;;;;5097903;28;19938;-71
2021/07/02 04:56:52;;;;;;;;;;;15.20;99.90;;;;;;5097851;28;19924;-71
2021/07/02 04:59:26;;;;;;;;;;;15.20;99.90;;;;;;5097797;28;19935;-71
2021/07/02 05:01:53;;;;;;;;;;;15.20;99.90;;;;;;5097729;28;19968;-71
2021/07/02 05:04:21;;;;;;;;;;;15.20;99.90;;;;;;5097810;28;19924;-71
2021/07/02 05:06:48;;;;;;;;;;;15.20;99.90;;;;;;5097437;28;19924;-71
2021/07/02 05:09:15;;;;;;;;;;;15.30;99.90;;;;;;5097409;28;20367;-71
2021/07/02 05:11:41;;;;;;;;;;;15.30;99.90;;;;;;5097660;28;19934;-71
2021/07/02 05:14:08;;;;;;;;;;;15.30;99.90;;;;;;5097393;28;19924;-69
2021/07/02 05:16:35;;;;;;;;;;;15.30;99.90;;;;;;5097576;28;19938;-71
2021/07/02 05:19:02;;;;;;;;;;;15.30;99.90;;;;;;5097387;28;19931;-71
2021/07/02 05:21:30;;;;;;;;;;;15.40;99.90;;;;;;5097369;28;20267;-71
2021/07/02 05:23:57;;;;;;;;;;;15.40;99.90;;;;;;5097136;28;19924;-71
2021/07/02 05:26:24;;;;;;;;;;;15.40;99.90;;;;;;5097274;28;19934;-71
2021/07/02 05:28:51;;;;;;;;;;;15.40;99.90;;;;;;5097289;28;19924;-71
2021/07/02 05:31:18;;;;;;;;;;;15.40;99.90;;;;;;5097250;28;19932;-71
2021/07/02 05:33:44;;;;;;;;;;;15.40;99.90;;;;;;5097121;28;20344;-71
2021/07/02 05:36:11;;;;;;;;;;;15.40;99.90;;;;;;5096999;28;20328;-71
2021/07/02 05:38:40;;;;;;;;;;;15.40;99.90;;;;;;5096908;28;19924;-69
2021/07/02 05:41:06;;;;;;;;;;;15.40;99.90;;;;;;5096917;28;20005;-69
2021/07/02 05:43:33;;;;;;;;;;;15.40;99.90;;;;;;5097110;28;19924;-71
2021/07/02 05:46:00;;;;;;;;;;;15.50;99.90;;;;;;5096974;28;19935;-71
2021/07/02 05:48:28;;;;;;;;;;;15.60;99.90;;;;;;5096685;28;20362;-71
2021/07/02 05:50:55;;;;;;;;;;;15.60;99.90;;;;;;5096617;28;19928;-71
2021/07/02 05:53:22;;;;;;;;;;;15.70;99.90;;;;;;5096629;28;19923;-71
2021/07/02 05:55:50;;;;;;;;;;;15.70;99.90;;;;;;5096468;28;19930;-71
2021/07/02 05:58:17;;;;;;;;;;;15.80;99.90;;;;;;5096543;28;20332;-71
2021/07/02 06:00:44;;;;;;;;;;;15.80;99.90;;;;;;5096475;28;19935;-71
2021/07/02 06:03:11;;;;;;;;;;;15.80;99.90;;;;;;5096724;28;19930;-71
2021/07/02 06:05:38;;;;;;;;;;;15.90;99.90;;;;;;5096537;28;20344;-71
2021/07/02 06:08:05;;;;;;;;;;;15.90;99.90;;;;;;5096134;28;20271;-71
2021/07/02 06:10:32;;;;;;;;;;;15.90;99.90;;;;;;5096182;28;19935;-71
2021/07/02 06:13:00;;;;;;;;;;;15.90;99.90;;;;;;5096278;28;20378;-71
2021/07/02 06:15:27;;;;;;;;;;;16.00;99.90;;;;;;5096322;28;20356;-71
2021/07/02 06:17:54;;;;;;;;;;;16.00;99.90;;;;;;5096119;28;20246;-71
2021/07/02 06:20:23;;;;;;;;;;;16.00;99.90;;;;;;5096160;28;19924;-71
2021/07/02 06:22:50;;;;;;;;;;;16.00;99.90;;;;;;5096237;28;19924;-71
2021/07/02 06:25:16;;;;;;;;;;;16.00;99.90;;;;;;5096314;28;20255;-71
2021/07/02 06:27:43;;;;;;;;;;;16.00;99.90;;;;;;5096109;28;19924;-71
2021/07/02 06:30:12;;;;;;;;;;;16.10;99.90;;;;;;5096225;28;19924;-71
2021/07/02 06:32:39;;;;;;;;;;;16.10;99.90;;;;;;5096042;28;19934;-71
2021/07/02 06:35:07;;;;;;;;;;;16.20;99.90;;;;;;5095898;28;19928;-71
2021/07/02 06:37:34;;;;;;;;;;;16.30;99.90;;;;;;5096108;28;19928;-71
2021/07/02 06:40:01;;;;;;;;;;;16.40;99.90;;;;;;5095862;28;19931;-71
2021/07/02 06:42:28;;;;;;;;;;;16.50;99.90;;;;;;5095827;28;19924;-71
2021/07/02 06:44:55;;;;;;;;;;;16.60;99.90;;;;;;5095717;28;20251;-71
2021/07/02 06:47:23;;;;;;;;;;;16.60;99.90;;;;;;5095624;28;19924;-71
2021/07/02 06:49:50;;;;;;;;;;;16.60;99.90;;;;;;5095577;28;19924;-71
2021/07/02 06:52:17;;;;;;;;;;;16.60;99.90;;;;;;5095486;28;20245;-71
2021/07/02 06:54:44;;;;;;;;;;;16.60;99.90;;;;;;5095604;28;20419;-71
2021/07/02 06:57:13;;;;;;;;;;;16.70;99.90;;;;;;5095613;28;19935;-71
2021/07/02 06:59:40;;;;;;;;;;;16.70;99.90;;;;;;5095583;28;19924;-72
2021/07/02 07:02:08;;;;;;;;;;;16.70;99.90;;;;;;5095468;28;19963;-71
2021/07/02 07:04:37;;;;;;;;;;;16.70;99.90;;;;;;5095486;28;19930;-71
2021/07/02 07:07:04;;;;;;;;;;;16.70;99.90;;;;;;5095161;28;20336;-71
2021/07/02 07:09:31;;;;;;;;;;;16.70;99.90;;;;;;5095590;28;20255;-71
2021/07/02 07:11:58;;;;;;;;;;;16.80;99.90;;;;;;5095392;28;20355;-71
2021/07/02 07:14:25;;;;;;;;;;;16.80;99.90;;;;;;5095118;28;20052;-71
2021/07/02 07:16:52;;;;;;;;;;;16.90;99.90;;;;;;5095152;28;20340;-71
2021/07/02 07:19:22;;;;;;;;;;;16.90;99.90;;;;;;5095140;28;19934;-71
2021/07/02 07:21:50;;;;;;;;;;;16.90;99.90;;;;;;5095408;28;19931;-72
2021/07/02 07:24:17;;;;;;;;;;;16.90;99.90;;;;;;5095197;28;19924;-71
2021/07/02 07:26:44;;;;;;;;;;;16.90;99.90;;;;;;5095265;28;19924;-72
2021/07/02 07:29:11;;;;;;;;;;;16.90;99.90;;;;;;5095298;28;20044;-71
2021/07/02 07:31:38;;;;;;;;;;;17.00;99.90;;;;;;5095123;28;19924;-71
2021/07/02 07:34:05;;;;;;;;;;;16.90;99.90;;;;;;5095084;28;19939;-71
2021/07/02 07:36:32;;;;;;;;;;;16.90;99.90;;;;;;5094922;28;20015;-71
2021/07/02 07:39:00;;;;;;;;;;;16.80;99.90;;;;;;5094973;28;20310;-71
2021/07/02 07:41:27;;;;;;;;;;;16.80;99.90;;;;;;5095036;28;19923;-71
2021/07/02 07:43:54;;;;;;;;;;;16.80;99.90;;;;;;5095195;28;19934;-71
2021/07/02 07:46:22;;;;;;;;;;;16.80;99.90;;;;;;5094930;28;19924;-71
2021/07/02 07:48:48;;;;;;;;;;;16.80;99.90;;;;;;5094926;28;20330;-71
2021/07/02 07:51:31;;;;;;;;;;;16.80;99.90;;;;;;5094878;28;19931;-72
2021/07/02 07:53:58;;;;;;;;;;;16.80;99.90;;;;;;5095114;28;19935;-71
2021/07/02 07:56:28;;;;;;;;;;;16.80;99.90;;;;;;5095114;28;20256;-71
2021/07/02 07:58:55;;;;;;;;;;;16.90;99.90;;;;;;5095144;28;19932;-71
2021/07/02 08:01:22;;;;;;;;;;;16.90;99.90;;;;;;5094644;28;19931;-71
2021/07/02 08:03:49;;;;;;;;;;;16.90;99.90;;;;;;5094939;28;20241;-71
2021/07/02 08:06:16;;;;;;;;;;;16.90;99.90;;;;;;5094605;28;20356;-71
2021/07/02 08:08:42;;;;;;;;;;;17.00;99.90;;;;;;5094652;28;19924;-71
2021/07/02 08:11:09;;;;;;;;;;;17.00;99.90;;;;;;5094780;28;20030;-72
2021/07/02 08:13:38;;;;;;;;;;;17.10;99.90;;;;;;5094789;28;19928;-71
2021/07/02 08:16:05;;;;;;;;;;;17.10;99.90;;;;;;5094611;28;20344;-72
2021/07/02 08:18:32;;;;;;;;;;;17.20;99.90;;;;;;5094721;28;19924;-72
2021/07/02 08:20:59;;;;;;;;;;;17.20;99.90;;;;;;5094586;28;20351;-72
2021/07/02 08:23:25;;;;;;;;;;;17.30;99.90;;;;;;5094588;28;19924;-72
2021/07/02 08:25:52;;;;;;;;;;;17.30;99.90;;;;;;5094581;28;19924;-72
2021/07/02 08:31:05;;;;;;;;;;;17.30;99.90;;;;;;5095225;28;19930;-72
2021/07/02 08:33:32;;;;;;;;;;;17.30;99.90;;;;;;5098239;28;20267;-72
2021/07/02 08:35:59;;;;;;;;;;;17.30;99.90;;;;;;5098103;28;19938;-72
2021/07/02 08:38:26;;;;;;;;;;;17.30;99.90;;;;;;5098061;28;20048;-72
2021/07/02 08:40:53;;;;;;;;;;;17.30;99.90;;;;;;5097964;28;19931;-72
2021/07/02 08:43:20;;;;;;;;;;;17.40;99.90;;;;;;5098077;28;19924;-72
2021/07/02 08:45:47;;;;;;;;;;;17.30;99.90;;;;;;5097888;28;20371;-72
2021/07/02 08:48:17;;;;;;;;;;;17.30;99.90;;;;;;5097874;28;19924;-72
2021/07/02 08:50:44;;;;;;;;;;;17.30;99.90;;;;;;5097884;28;19928;-72
2021/07/02 08:53:11;;;;;;;;;;;17.40;99.90;;;;;;5098327;28;19924;-72
2021/07/02 08:55:39;;;;;;;;;;;17.40;99.90;;;;;;5097732;28;19924;-72
2021/07/02 08:58:09;;;;;;;;;;;17.40;99.90;;;;;;5097664;28;19924;-72
2021/07/02 09:00:36;;;;;;;;;;;17.50;99.90;;;;;;5097355;28;19938;-72
2021/07/02 09:03:04;;;;;;;;;;;17.50;99.90;;;;;;5097763;28;19924;-72
2021/07/02 09:05:34;;;;;;;;;;;17.60;99.90;;;;;;5097330;28;19924;-72
2021/07/02 09:08:01;;;;;;;;;;;17.60;99.90;;;;;;5097198;28;20302;-72
2021/07/02 09:10:31;;;;;;;;;;;17.60;99.90;;;;;;5097748;28;19930;-72
2021/07/02 09:12:58;;;;;;;;;;;17.70;99.90;;;;;;5097598;28;19956;-72
2021/07/02 09:15:25;;;;;;;;;;;17.80;99.90;;;;;;5097452;28;19931;-72
2021/07/02 09:17:55;;;;;;;;;;;17.80;99.90;;;;;;5097428;28;19928;-72
2021/07/02 09:20:23;;;;;;;;;;;17.70;99.90;;;;;;5097784;28;19923;-72
2021/07/02 09:22:52;;;;;;;;;;;17.70;99.90;;;;;;5097271;28;19924;-72
2021/07/02 09:25:23;;;;;;;;;;;17.70;99.90;;;;;;5097159;28;19924;-71
2021/07/02 09:27:50;;;;;;;;;;;17.60;99.90;;;;;;5097298;28;19934;-72
2021/07/02 09:30:18;;;;;;;;;;;17.60;99.90;;;;;;5097053;28;20263;-72
2021/07/02 09:32:45;;;;;;;;;;;17.70;99.90;;;;;;5097094;28;20022;-72
2021/07/02 09:35:13;;;;;;;;;;;17.90;99.90;;;;;;5097025;28;19924;-72
2021/07/02 09:37:42;;;;;;;;;;;17.90;99.90;;;;;;5096851;28;19924;-72
2021/07/02 09:40:11;;;;;;;;;;;18.00;99.90;;;;;;5096903;28;19932;-72
2021/07/02 09:42:38;;;;;;;;;;;18.10;99.90;;;;;;5096834;28;19924;-72
2021/07/02 09:45:06;;;;;;;;;;;18.10;99.90;;;;;;5096860;28;19927;-72
2021/07/02 09:47:33;;;;;;;;;;;18.20;99.90;;;;;;5096766;28;20011;-72
2021/07/02 09:50:22;;;;;;;;;;;18.20;99.90;;;;;;5096635;28;19928;-72
2021/07/02 09:52:50;;;;;;;;;;;18.30;99.90;;;;;;5096932;28;19990;-72
2021/07/02 09:55:19;;;;;;;;;;;18.40;99.90;;;;;;5096565;28;19927;-72
2021/07/02 09:57:45;;;;;;;;;;;18.40;99.90;;;;;;5096520;28;19924;-72
2021/07/02 10:00:13;;;;;;;;;;;18.40;99.90;;;;;;5096442;28;20283;-72
2021/07/02 10:02:39;;;;;;;;;;;18.50;99.90;;;;;;5096419;28;19924;-74
2021/07/02 10:05:07;;;;;;;;;;;18.40;99.90;;;;;;5096491;28;19924;-70
2021/07/02 10:07:34;;;;;;;;;;;18.30;99.90;;;;;;5096242;28;19976;-70
2021/07/02 10:10:01;;;;;;;;;;;18.30;99.90;;;;;;5096320;28;20272;-70
2021/07/02 10:12:29;;;;;;;;;;;18.10;99.90;;;;;;5096180;28;19932;-70
2021/07/02 10:14:56;;;;;;;;;;;18.10;99.90;;;;;;5096446;28;19924;-70
2021/07/02 10:17:23;;;;;;;;;;;18.00;99.90;;;;;;5096475;28;19989;-70
2021/07/02 10:19:50;;;;;;;;;;;17.90;99.90;;;;;;5096051;28;20332;-70
2021/07/02 10:22:19;;;;;;;;;;;17.90;99.90;;;;;;5096156;28;20388;-70
2021/07/02 10:24:47;;;;;;;;;;;17.90;99.90;;;;;;5096191;28;20006;-70
2021/07/02 10:27:14;;;;;;;;;;;17.90;99.90;;;;;;5096172;28;19930;-70
2021/07/02 10:29:42;;;;;;;;;;;17.90;99.90;;;;;;5095951;28;19924;-70
2021/07/02 10:32:09;;;;;;;;;;;17.90;99.90;;;;;;5096084;28;19934;-70
2021/07/02 10:34:36;;;;;;;;;;;17.90;99.90;;;;;;5095936;28;19924;-70
2021/07/02 10:37:03;;;;;;;;;;;17.90;99.90;;;;;;5095788;28;19949;-70
2021/07/02 10:39:30;;;;;;;;;;;17.90;99.90;;;;;;5095735;28;20355;-70
2021/07/02 10:42:04;;;;;;;;;;;18.00;99.90;;;;;;5095622;28;19939;-70
2021/07/02 10:44:31;;;;;;;;;;;18.10;99.90;;;;;;5095856;28;19978;-70
2021/07/02 10:47:02;;;;;;;;;;;18.10;99.90;;;;;;5095890;28;20275;-70
2021/07/02 10:49:35;;;;;;;;;;;18.20;99.90;;;;;;5095072;28;19924;-70
2021/07/02 10:52:05;;;;;;;;;;;18.30;99.90;;;;;;5095627;28;19950;-70
2021/07/02 10:54:35;;;;;;;;;;;18.40;99.90;;;;;;5095397;28;19924;-73
2021/07/02 10:57:06;;;;;;;;;;;18.50;99.90;;;;;;5095820;28;19925;-71
2021/07/02 10:59:52;;;;;;;;;;;18.60;99.90;;;;;;5095433;28;20341;-72
2021/07/02 11:02:20;;;;;;;;;;;18.60;99.90;;;;;;5095284;28;19924;-72
2021/07/02 11:04:47;;;;;;;;;;;18.70;99.90;;;;;;5095680;28;20268;-72
2021/07/02 11:07:30;;;;;;;;;;;18.70;99.90;;;;;;5095221;28;19924;-72
2021/07/02 11:09:59;;;;;;;;;;;18.70;99.90;;;;;;5094279;28;20196;-72
2021/07/02 11:12:26;;;;;;;;;;;18.70;99.90;;;;;;5094868;28;19924;-72
2021/07/02 11:15:11;;;;;;;;;;;18.80;99.90;;;;;;5095070;28;20359;-72
2021/07/02 11:17:39;;;;;;;;;;;18.80;99.90;;;;;;5095181;28;19935;-72
2021/07/02 11:20:25;;;;;;;;;;;18.80;99.90;;;;;;5095132;28;20332;-72
2021/07/02 11:22:53;;;;;;;;;;;18.70;99.90;;;;;;5095055;28;19923;-72
2021/07/02 11:25:22;;;;;;;;;;;18.80;99.90;;;;;;5095226;28;19924;-72
2021/07/02 11:27:57;;;;;;;;;;;18.80;99.90;;;;;;5095172;28;19950;-72
2021/07/02 11:30:27;;;;;;;;;;;18.90;99.90;;;;;;5095101;28;20348;-72
2021/07/02 11:32:56;;;;;;;;;;;18.90;99.90;;;;;;5095352;28;19971;-72
2021/07/02 11:35:23;;;;;;;;;;;19.10;99.90;;;;;;5095018;28;20356;-72
2021/07/02 11:38:05;;;;;;;;;;;19.30;99.90;;;;;;5095184;28;19935;-71
2021/07/02 11:40:33;;;;;;;;;;;19.50;99.90;;;;;;5094962;28;19924;-71
2021/07/02 11:42:59;;;;;;;;;;;19.70;99.90;;;;;;5094806;28;19924;-72
2021/07/02 11:45:41;;;;;;;;;;;19.80;99.90;;;;;;5095139;28;20241;-72
2021/07/02 11:48:09;;;;;;;;;;;19.90;99.90;;;;;;5093333;28;19928;-72
2021/07/02 11:50:40;;;;;;;;;;;20.10;99.90;;;;;;5095107;28;19924;-72
2021/07/02 11:53:07;;;;;;;;;;;20.10;99.90;;;;;;5094906;28;19924;-72
2021/07/02 11:55:34;;;;;;;;;;;20.20;99.90;;;;;;5094812;28;20257;-72
2021/07/02 11:58:13;;;;;;;;;;;20.20;99.90;;;;;;5094942;28;19924;-72
2021/07/02 12:00:40;;;;;;;;;;;20.20;99.90;;;;;;5094983;28;19924;-72
2021/07/02 12:03:07;;;;;;;;;;;20.10;99.90;;;;;;5098725;28;19935;-72
2021/07/02 12:05:35;;;;;;;;;;;20.10;99.90;;;;;;5098761;28;19934;-72
2021/07/02 12:08:02;;;;;;;;;;;20.00;99.90;;;;;;5098536;28;19931;-72
2021/07/02 12:10:29;;;;;;;;;;;20.00;99.90;;;;;;5098883;28;19928;-72
2021/07/02 12:13:05;;;;;;;;;;;19.90;99.90;;;;;;5098704;28;19935;-72
2021/07/02 12:15:32;;;;;;;;;;;19.90;99.90;;;;;;5098507;28;20411;-72
2021/07/02 12:18:03;;;;;;;;;;;19.90;99.90;;;;;;5098564;28;20351;-72
2021/07/02 12:20:29;;;;;;;;;;;19.80;99.90;;;;;;5098497;28;19935;-72
2021/07/02 12:23:07;;;;;;;;;;;19.80;99.90;;;;;;5098582;28;19924;-72
2021/07/02 12:25:34;;;;;;;;;;;19.70;99.90;;;;;;5098458;28;19934;-72
2021/07/02 12:28:00;;;;;;;;;;;19.70;99.90;;;;;;5098318;28;19961;-72
2021/07/02 12:30:27;;;;;;;;;;;19.80;99.90;;;;;;5098321;28;19924;-72
2021/07/02 12:32:55;;;;;;;;;;;19.90;99.90;;;;;;5098176;28;19985;-72
2021/07/02 12:35:22;;;;;;;;;;;20.00;99.90;;;;;;5098232;28;19938;-72
2021/07/02 12:37:49;;;;;;;;;;;19.90;99.90;;;;;;5098411;28;19928;-72
2021/07/02 12:40:17;;;;;;;;;;;19.90;99.90;;;;;;5098367;28;19924;-72
2021/07/02 12:42:45;;;;;;;;;;;20.00;99.90;;;;;;5098112;28;20275;-72
2021/07/02 12:45:12;;;;;;;;;;;20.10;99.90;;;;;;5098026;28;19964;-72
2021/07/02 12:47:40;;;;;;;;;;;20.20;99.90;;;;;;5097931;28;19928;-72
2021/07/02 12:50:07;;;;;;;;;;;20.30;99.90;;;;;;5098220;28;19959;-72
2021/07/02 12:55:28;;;;;;;;;;;20.40;99.90;;;;;;5097878;28;20389;-72
2021/07/02 12:57:55;;;;;;;;;;;20.40;99.90;;;;;;5097729;28;19923;-72
2021/07/02 13:00:26;;;;;;;;;;;20.50;99.90;;;;;;5097936;28;20243;-72
2021/07/02 13:02:53;;;;;;;;;;;20.40;99.90;;;;;;5097633;28;19924;-72
2021/07/02 13:05:27;;;;;;;;;;;20.40;99.90;;;;;;5097717;28;19924;-72
2021/07/02 13:07:54;;;;;;;;;;;20.50;99.90;;;;;;5097356;28;19938;-72
2021/07/02 13:10:22;;;;;;;;;;;20.60;99.90;;;;;;5097644;28;20019;-72
2021/07/02 13:13:09;;;;;;;;;;;20.70;99.90;;;;;;5096814;28;19934;-72
2021/07/02 13:15:37;;;;;;;;;;;20.80;99.90;;;;;;5097476;28;19924;-72
2021/07/02 13:18:04;;;;;;;;;;;20.90;99.90;;;;;;5097502;28;19924;-72
2021/07/02 13:20:44;;;;;;;;;;;21.00;99.90;;;;;;5097620;28;19924;-72
2021/07/02 13:23:10;;;;;;;;;;;21.00;99.90;;;;;;5097194;28;20360;-72
2021/07/02 13:25:37;;;;;;;;;;;21.10;99.90;;;;;;5097070;28;19924;-72
2021/07/02 13:28:04;;;;;;;;;;;21.20;99.90;;;;;;5097119;28;19935;-72
2021/07/02 13:30:33;;;;;;;;;;;21.40;99.90;;;;;;5097367;28;19925;-72
2021/07/02 13:33:03;;;;;;;;;;;21.40;99.90;;;;;;5097199;28;19950;-72
2021/07/02 13:35:30;;;;;;;;;;;21.40;99.90;;;;;;5097040;28;19931;-72
2021/07/02 13:37:57;;;;;;;;;;;21.40;99.90;;;;;;5097274;28;19931;-72
2021/07/02 13:40:34;;;;;;;;;;;21.30;99.90;;;;;;5097142;28;19935;-72
2021/07/02 13:43:02;;;;;;;;;;;21.40;99.90;;;;;;5096995;28;19924;-72
2021/07/02 13:45:29;;;;;;;;;;;21.30;99.90;;;;;;5097001;28;20268;-72
2021/07/02 13:47:57;;;;;;;;;;;21.30;99.90;;;;;;5096703;28;20382;-72
2021/07/02 13:50:24;;;;;;;;;;;21.40;99.90;;;;;;5096564;28;19923;-72
2021/07/02 13:52:51;;;;;;;;;;;21.40;99.90;;;;;;5096823;28;19924;-72
2021/07/02 13:55:18;;;;;;;;;;;21.60;99.90;;;;;;5096765;28;19934;-72
2021/07/02 13:57:45;;;;;;;;;;;21.60;99.90;;;;;;5096735;28;19942;-72
2021/07/02 14:00:12;;;;;;;;;;;21.60;99.90;;;;;;5096533;28;19935;-72
2021/07/02 14:02:39;;;;;;;;;;;21.70;99.90;;;;;;5096441;28;19950;-72
2021/07/02 14:05:08;;;;;;;;;;;21.70;99.90;;;;;;5096501;28;19924;-72
2021/07/02 14:07:35;;;;;;;;;;;21.70;99.90;;;;;;5096146;28;20267;-72
2021/07/02 14:10:02;;;;;;;;;;;21.60;99.90;;;;;;5096401;28;20366;-72
2021/07/02 14:12:29;;;;;;;;;;;21.40;99.90;;;;;;5096410;28;19924;-72
2021/07/02 14:14:55;;;;;;;;;;;21.40;99.90;;;;;;5096261;28;20019;-72
2021/07/02 14:17:22;;;;;;;;;;;21.30;99.90;;;;;;5096275;28;19934;-71
2021/07/02 14:19:49;;;;;;;;;;;21.30;99.90;;;;;;5096190;28;19935;-72
2021/07/02 14:22:18;;;;;;;;;;;21.30;99.90;;;;;;5096041;28;20367;-71
2021/07/02 14:24:44;;;;;;;;;;;21.30;99.90;;;;;;5095169;28;19925;-71